
<gpx xmlns="http://www.topografix.com/GPX/1/1" xmlns:gpxx="http://www.garmin.com/xmlschemas/GpxExtensions/v3" xmlns:xsi="http://www.w3.org/2001/XMLSchema-instance" version="1.1" creator="Adze - http://kobotsw.com/apps/adze" xsi:schemaLocation="http://www.topografix.com/GPX/1/1 http://www.topografix.com/GPX/1/1/gpx.xsd http://www.garmin.com/xmlschemas/GpxExtensions/v3 http://www.garmin.com/xmlschemas/GpxExtensionsv3.xsd">
    <metadata>
        <name>Untitled Document</name>
        <link href="http://www.garmin.com"></link>
        <time>2018-02-26T06:42:40.282Z</time>
    </metadata>
    <wpt lon="100.974500" lat="12.906127">
        <ele>68.000000</ele>
        <name>HorseshoePoint</name>
        <cmt>26-JUL-14 12:51:39</cmt>
        <desc>26-JUL-14 12:51:39</desc>
        <sym>Lodging</sym>
        <extensions>
            <gpxx:WaypointExtension xmlns:gpxx="http://www.garmin.com/xmlschemas/GpxExtensions/v3">
                <gpxx:DisplayMode>SymbolOnly</gpxx:DisplayMode>
            </gpxx:WaypointExtension>
        </extensions>
    </wpt>
    <wpt lon="100.970957" lat="12.868992">
        <ele>33.000000</ele>
        <name>Water Sat</name>
        <cmt>26-JUL-14 14:38:07</cmt>
        <desc>26-JUL-14 14:38:07</desc>
        <sym>Drinking Water</sym>
        <extensions>
            <gpxx:WaypointExtension xmlns:gpxx="http://www.garmin.com/xmlschemas/GpxExtensions/v3">
                <gpxx:DisplayMode>SymbolOnly</gpxx:DisplayMode>
            </gpxx:WaypointExtension>
        </extensions>
    </wpt>
    <trk>
        <name>Saturday</name>
        <extensions>
            <gpxx:TrackExtension xmlns:gpxx="http://www.garmin.com/xmlschemas/GpxExtensions/v3">
                <gpxx:DisplayColor>Red</gpxx:DisplayColor>
            </gpxx:TrackExtension>
        </extensions>
        <trkseg>
            <trkpt lon="100.974465" lat="12.906095">
                <ele>73.678223</ele>
                <time>2014-07-26T06:03:43Z</time>
            </trkpt>
            <trkpt lon="100.974366" lat="12.906133">
                <ele>72.716919</ele>
                <time>2014-07-26T06:03:51Z</time>
            </trkpt>
            <trkpt lon="100.974216" lat="12.905713">
                <ele>71.274902</ele>
                <time>2014-07-26T06:04:04Z</time>
            </trkpt>
            <trkpt lon="100.974010" lat="12.904749">
                <ele>68.390869</ele>
                <time>2014-07-26T06:04:26Z</time>
            </trkpt>
            <trkpt lon="100.973007" lat="12.904585">
                <ele>67.910278</ele>
                <time>2014-07-26T06:04:46Z</time>
            </trkpt>
            <trkpt lon="100.972715" lat="12.905703">
                <ele>67.910278</ele>
                <time>2014-07-26T06:05:14Z</time>
            </trkpt>
            <trkpt lon="100.972289" lat="12.906238">
                <ele>67.429688</ele>
                <time>2014-07-26T06:05:28Z</time>
            </trkpt>
            <trkpt lon="100.971344" lat="12.906403">
                <ele>68.390869</ele>
                <time>2014-07-26T06:05:45Z</time>
            </trkpt>
            <trkpt lon="100.969855" lat="12.906454">
                <ele>66.948975</ele>
                <time>2014-07-26T06:06:08Z</time>
            </trkpt>
            <trkpt lon="100.968953" lat="12.906556">
                <ele>63.103638</ele>
                <time>2014-07-26T06:06:21Z</time>
            </trkpt>
            <trkpt lon="100.968010" lat="12.907299">
                <ele>60.700317</ele>
                <time>2014-07-26T06:06:37Z</time>
            </trkpt>
            <trkpt lon="100.967915" lat="12.907653">
                <ele>59.258423</ele>
                <time>2014-07-26T06:06:42Z</time>
            </trkpt>
            <trkpt lon="100.968628" lat="12.910796">
                <ele>53.490479</ele>
                <time>2014-07-26T06:07:27Z</time>
            </trkpt>
            <trkpt lon="100.963418" lat="12.913388">
                <ele>45.799927</ele>
                <time>2014-07-26T06:09:32Z</time>
            </trkpt>
            <trkpt lon="100.963293" lat="12.913571">
                <ele>50.606567</ele>
                <time>2014-07-26T06:09:42Z</time>
            </trkpt>
            <trkpt lon="100.962894" lat="12.912640">
                <ele>45.799927</ele>
                <time>2014-07-26T06:10:04Z</time>
            </trkpt>
            <trkpt lon="100.962522" lat="12.911095">
                <ele>43.396606</ele>
                <time>2014-07-26T06:10:38Z</time>
            </trkpt>
            <trkpt lon="100.962528" lat="12.910516">
                <ele>42.916016</ele>
                <time>2014-07-26T06:10:52Z</time>
            </trkpt>
            <trkpt lon="100.962634" lat="12.910059">
                <ele>42.916016</ele>
                <time>2014-07-26T06:11:06Z</time>
            </trkpt>
            <trkpt lon="100.964757" lat="12.906351">
                <ele>51.087158</ele>
                <time>2014-07-26T06:13:07Z</time>
            </trkpt>
            <trkpt lon="100.964260" lat="12.905788">
                <ele>51.567871</ele>
                <time>2014-07-26T06:13:33Z</time>
            </trkpt>
            <trkpt lon="100.964005" lat="12.905755">
                <ele>50.125977</ele>
                <time>2014-07-26T06:13:44Z</time>
            </trkpt>
            <trkpt lon="100.963675" lat="12.905349">
                <ele>51.087158</ele>
                <time>2014-07-26T06:14:04Z</time>
            </trkpt>
            <trkpt lon="100.963753" lat="12.904962">
                <ele>54.451782</ele>
                <time>2014-07-26T06:14:26Z</time>
            </trkpt>
            <trkpt lon="100.964252" lat="12.904053">
                <ele>55.413086</ele>
                <time>2014-07-26T06:15:03Z</time>
            </trkpt>
            <trkpt lon="100.964281" lat="12.903231">
                <ele>58.297119</ele>
                <time>2014-07-26T06:15:31Z</time>
            </trkpt>
            <trkpt lon="100.964500" lat="12.902554">
                <ele>59.258423</ele>
                <time>2014-07-26T06:15:51Z</time>
            </trkpt>
            <trkpt lon="100.964562" lat="12.902442">
                <ele>59.739136</ele>
                <time>2014-07-26T06:16:01Z</time>
            </trkpt>
            <trkpt lon="100.964899" lat="12.902430">
                <ele>59.739136</ele>
                <time>2014-07-26T06:16:13Z</time>
            </trkpt>
            <trkpt lon="100.965492" lat="12.902556">
                <ele>61.661743</ele>
                <time>2014-07-26T06:16:30Z</time>
            </trkpt>
            <trkpt lon="100.967734" lat="12.902046">
                <ele>62.622925</ele>
                <time>2014-07-26T06:17:24Z</time>
            </trkpt>
            <trkpt lon="100.968581" lat="12.901595">
                <ele>63.103638</ele>
                <time>2014-07-26T06:18:01Z</time>
            </trkpt>
            <trkpt lon="100.967766" lat="12.902043">
                <ele>64.545654</ele>
                <time>2014-07-26T06:18:35Z</time>
            </trkpt>
            <trkpt lon="100.966449" lat="12.902222">
                <ele>63.584351</ele>
                <time>2014-07-26T06:19:17Z</time>
            </trkpt>
            <trkpt lon="100.965466" lat="12.902556">
                <ele>60.700317</ele>
                <time>2014-07-26T06:19:49Z</time>
            </trkpt>
            <trkpt lon="100.964614" lat="12.902287">
                <ele>59.739136</ele>
                <time>2014-07-26T06:20:23Z</time>
            </trkpt>
            <trkpt lon="100.964834" lat="12.901669">
                <ele>60.700317</ele>
                <time>2014-07-26T06:20:41Z</time>
            </trkpt>
            <trkpt lon="100.964809" lat="12.901179">
                <ele>61.181030</ele>
                <time>2014-07-26T06:20:53Z</time>
            </trkpt>
            <trkpt lon="100.965213" lat="12.900606">
                <ele>61.181030</ele>
                <time>2014-07-26T06:21:11Z</time>
            </trkpt>
            <trkpt lon="100.966137" lat="12.900433">
                <ele>63.103638</ele>
                <time>2014-07-26T06:21:38Z</time>
            </trkpt>
            <trkpt lon="100.966968" lat="12.899473">
                <ele>63.103638</ele>
                <time>2014-07-26T06:22:44Z</time>
            </trkpt>
            <trkpt lon="100.966838" lat="12.899519">
                <ele>64.545654</ele>
                <time>2014-07-26T06:22:55Z</time>
            </trkpt>
            <trkpt lon="100.966298" lat="12.900355">
                <ele>63.584351</ele>
                <time>2014-07-26T06:23:23Z</time>
            </trkpt>
            <trkpt lon="100.965755" lat="12.900549">
                <ele>63.103638</ele>
                <time>2014-07-26T06:23:37Z</time>
            </trkpt>
            <trkpt lon="100.965253" lat="12.900591">
                <ele>62.142334</ele>
                <time>2014-07-26T06:23:50Z</time>
            </trkpt>
            <trkpt lon="100.965020" lat="12.900801">
                <ele>61.661743</ele>
                <time>2014-07-26T06:23:58Z</time>
            </trkpt>
            <trkpt lon="100.964792" lat="12.901256">
                <ele>61.181030</ele>
                <time>2014-07-26T06:24:13Z</time>
            </trkpt>
            <trkpt lon="100.964780" lat="12.901947">
                <ele>61.661743</ele>
                <time>2014-07-26T06:24:30Z</time>
            </trkpt>
            <trkpt lon="100.964406" lat="12.902727">
                <ele>60.700317</ele>
                <time>2014-07-26T06:25:53Z</time>
            </trkpt>
            <trkpt lon="100.963331" lat="12.903391">
                <ele>56.855103</ele>
                <time>2014-07-26T06:26:50Z</time>
            </trkpt>
            <trkpt lon="100.962866" lat="12.903975">
                <ele>55.413086</ele>
                <time>2014-07-26T06:27:07Z</time>
            </trkpt>
            <trkpt lon="100.962521" lat="12.904600">
                <ele>52.529175</ele>
                <time>2014-07-26T06:27:22Z</time>
            </trkpt>
            <trkpt lon="100.962031" lat="12.904711">
                <ele>50.606567</ele>
                <time>2014-07-26T06:27:39Z</time>
            </trkpt>
            <trkpt lon="100.961869" lat="12.904595">
                <ele>51.087158</ele>
                <time>2014-07-26T06:27:46Z</time>
            </trkpt>
            <trkpt lon="100.961719" lat="12.904851">
                <ele>50.606567</ele>
                <time>2014-07-26T06:28:20Z</time>
            </trkpt>
            <trkpt lon="100.961629" lat="12.905200">
                <ele>44.838623</ele>
                <time>2014-07-26T06:29:03Z</time>
            </trkpt>
            <trkpt lon="100.961201" lat="12.905197">
                <ele>46.280640</ele>
                <time>2014-07-26T06:29:45Z</time>
            </trkpt>
            <trkpt lon="100.960803" lat="12.905233">
                <ele>43.877319</ele>
                <time>2014-07-26T06:30:28Z</time>
            </trkpt>
            <trkpt lon="100.958827" lat="12.906881">
                <ele>37.148071</ele>
                <time>2014-07-26T06:32:17Z</time>
            </trkpt>
            <trkpt lon="100.958369" lat="12.907389">
                <ele>36.186768</ele>
                <time>2014-07-26T06:33:18Z</time>
            </trkpt>
            <trkpt lon="100.957844" lat="12.906964">
                <ele>36.186768</ele>
                <time>2014-07-26T06:33:49Z</time>
            </trkpt>
            <trkpt lon="100.957458" lat="12.906973">
                <ele>36.186768</ele>
                <time>2014-07-26T06:34:02Z</time>
            </trkpt>
            <trkpt lon="100.957445" lat="12.906767">
                <ele>36.667480</ele>
                <time>2014-07-26T06:34:12Z</time>
            </trkpt>
            <trkpt lon="100.957806" lat="12.906416">
                <ele>41.954712</ele>
                <time>2014-07-26T06:34:43Z</time>
            </trkpt>
            <trkpt lon="100.958065" lat="12.906228">
                <ele>42.435425</ele>
                <time>2014-07-26T06:34:57Z</time>
            </trkpt>
            <trkpt lon="100.958457" lat="12.904590">
                <ele>47.722534</ele>
                <time>2014-07-26T06:36:03Z</time>
            </trkpt>
            <trkpt lon="100.958394" lat="12.904136">
                <ele>48.683960</ele>
                <time>2014-07-26T06:36:20Z</time>
            </trkpt>
            <trkpt lon="100.957112" lat="12.903511">
                <ele>49.164551</ele>
                <time>2014-07-26T06:37:03Z</time>
            </trkpt>
            <trkpt lon="100.956974" lat="12.902941">
                <ele>50.606567</ele>
                <time>2014-07-26T06:37:21Z</time>
            </trkpt>
            <trkpt lon="100.956593" lat="12.902300">
                <ele>51.567871</ele>
                <time>2014-07-26T06:37:40Z</time>
            </trkpt>
            <trkpt lon="100.956168" lat="12.902013">
                <ele>51.087158</ele>
                <time>2014-07-26T06:37:54Z</time>
            </trkpt>
            <trkpt lon="100.955784" lat="12.902057">
                <ele>50.606567</ele>
                <time>2014-07-26T06:38:06Z</time>
            </trkpt>
            <trkpt lon="100.955693" lat="12.902227">
                <ele>50.606567</ele>
                <time>2014-07-26T06:38:12Z</time>
            </trkpt>
            <trkpt lon="100.955107" lat="12.902426">
                <ele>52.529175</ele>
                <time>2014-07-26T06:39:00Z</time>
            </trkpt>
            <trkpt lon="100.954574" lat="12.902733">
                <ele>51.087158</ele>
                <time>2014-07-26T06:39:25Z</time>
            </trkpt>
            <trkpt lon="100.954200" lat="12.902631">
                <ele>49.164551</ele>
                <time>2014-07-26T06:39:40Z</time>
            </trkpt>
            <trkpt lon="100.954613" lat="12.902766">
                <ele>51.087158</ele>
                <time>2014-07-26T06:40:19Z</time>
            </trkpt>
            <trkpt lon="100.955121" lat="12.902484">
                <ele>52.529175</ele>
                <time>2014-07-26T06:40:39Z</time>
            </trkpt>
            <trkpt lon="100.955090" lat="12.902213">
                <ele>52.529175</ele>
                <time>2014-07-26T06:40:58Z</time>
            </trkpt>
            <trkpt lon="100.955484" lat="12.902386">
                <ele>52.529175</ele>
                <time>2014-07-26T06:41:14Z</time>
            </trkpt>
            <trkpt lon="100.955760" lat="12.902130">
                <ele>52.529175</ele>
                <time>2014-07-26T06:41:27Z</time>
            </trkpt>
            <trkpt lon="100.955791" lat="12.901437">
                <ele>53.009766</ele>
                <time>2014-07-26T06:41:52Z</time>
            </trkpt>
            <trkpt lon="100.956923" lat="12.900229">
                <ele>50.606567</ele>
                <time>2014-07-26T06:42:46Z</time>
            </trkpt>
            <trkpt lon="100.958073" lat="12.899935">
                <ele>51.567871</ele>
                <time>2014-07-26T06:43:14Z</time>
            </trkpt>
            <trkpt lon="100.958508" lat="12.899424">
                <ele>50.125977</ele>
                <time>2014-07-26T06:43:28Z</time>
            </trkpt>
            <trkpt lon="100.958822" lat="12.898113">
                <ele>48.683960</ele>
                <time>2014-07-26T06:43:55Z</time>
            </trkpt>
            <trkpt lon="100.959417" lat="12.897450">
                <ele>48.203369</ele>
                <time>2014-07-26T06:44:20Z</time>
            </trkpt>
            <trkpt lon="100.959083" lat="12.897683">
                <ele>49.164551</ele>
                <time>2014-07-26T06:44:52Z</time>
            </trkpt>
            <trkpt lon="100.957937" lat="12.897080">
                <ele>45.799927</ele>
                <time>2014-07-26T06:45:33Z</time>
            </trkpt>
            <trkpt lon="100.955941" lat="12.897693">
                <ele>47.722534</ele>
                <time>2014-07-26T06:46:23Z</time>
            </trkpt>
            <trkpt lon="100.954782" lat="12.897954">
                <ele>45.319214</ele>
                <time>2014-07-26T06:46:57Z</time>
            </trkpt>
            <trkpt lon="100.954199" lat="12.895437">
                <ele>45.319214</ele>
                <time>2014-07-26T06:49:24Z</time>
            </trkpt>
            <trkpt lon="100.953232" lat="12.895463">
                <ele>45.319214</ele>
                <time>2014-07-26T06:50:07Z</time>
            </trkpt>
            <trkpt lon="100.952926" lat="12.894661">
                <ele>46.280640</ele>
                <time>2014-07-26T06:50:39Z</time>
            </trkpt>
            <trkpt lon="100.952106" lat="12.892362">
                <ele>41.954712</ele>
                <time>2014-07-26T06:51:39Z</time>
            </trkpt>
            <trkpt lon="100.953197" lat="12.891508">
                <ele>38.109375</ele>
                <time>2014-07-26T06:52:29Z</time>
            </trkpt>
            <trkpt lon="100.953177" lat="12.891297">
                <ele>37.148071</ele>
                <time>2014-07-26T06:52:37Z</time>
            </trkpt>
            <trkpt lon="100.951139" lat="12.891022">
                <ele>35.225464</ele>
                <time>2014-07-26T06:53:21Z</time>
            </trkpt>
            <trkpt lon="100.951195" lat="12.890405">
                <ele>33.302856</ele>
                <time>2014-07-26T06:53:38Z</time>
            </trkpt>
            <trkpt lon="100.950852" lat="12.889438">
                <ele>33.302856</ele>
                <time>2014-07-26T06:54:00Z</time>
            </trkpt>
            <trkpt lon="100.950369" lat="12.886600">
                <ele>27.534912</ele>
                <time>2014-07-26T06:55:19Z</time>
            </trkpt>
            <trkpt lon="100.950586" lat="12.886001">
                <ele>27.054321</ele>
                <time>2014-07-26T06:55:59Z</time>
            </trkpt>
            <trkpt lon="100.950472" lat="12.885596">
                <ele>28.015503</ele>
                <time>2014-07-26T06:56:16Z</time>
            </trkpt>
            <trkpt lon="100.949993" lat="12.885146">
                <ele>28.976929</ele>
                <time>2014-07-26T06:56:37Z</time>
            </trkpt>
            <trkpt lon="100.949776" lat="12.885089">
                <ele>29.938110</ele>
                <time>2014-07-26T06:56:53Z</time>
            </trkpt>
            <trkpt lon="100.948988" lat="12.884778">
                <ele>27.054321</ele>
                <time>2014-07-26T06:57:45Z</time>
            </trkpt>
            <trkpt lon="100.948655" lat="12.885046">
                <ele>26.573608</ele>
                <time>2014-07-26T06:57:59Z</time>
            </trkpt>
            <trkpt lon="100.947935" lat="12.884615">
                <ele>25.131714</ele>
                <time>2014-07-26T06:58:23Z</time>
            </trkpt>
            <trkpt lon="100.945626" lat="12.882613">
                <ele>21.766968</ele>
                <time>2014-07-26T06:59:37Z</time>
            </trkpt>
            <trkpt lon="100.945844" lat="12.882141">
                <ele>21.766968</ele>
                <time>2014-07-26T06:59:53Z</time>
            </trkpt>
            <trkpt lon="100.945367" lat="12.881314">
                <ele>22.247559</ele>
                <time>2014-07-26T07:00:21Z</time>
            </trkpt>
            <trkpt lon="100.945014" lat="12.880761">
                <ele>22.247559</ele>
                <time>2014-07-26T07:00:38Z</time>
            </trkpt>
            <trkpt lon="100.944658" lat="12.879816">
                <ele>21.286377</ele>
                <time>2014-07-26T07:01:03Z</time>
            </trkpt>
            <trkpt lon="100.945269" lat="12.878532">
                <ele>22.728271</ele>
                <time>2014-07-26T07:01:38Z</time>
            </trkpt>
            <trkpt lon="100.945523" lat="12.877915">
                <ele>22.247559</ele>
                <time>2014-07-26T07:01:55Z</time>
            </trkpt>
            <trkpt lon="100.945637" lat="12.877092">
                <ele>22.247559</ele>
                <time>2014-07-26T07:02:15Z</time>
            </trkpt>
            <trkpt lon="100.944671" lat="12.876486">
                <ele>23.689575</ele>
                <time>2014-07-26T07:02:43Z</time>
            </trkpt>
            <trkpt lon="100.943490" lat="12.875455">
                <ele>23.689575</ele>
                <time>2014-07-26T07:03:19Z</time>
            </trkpt>
            <trkpt lon="100.942281" lat="12.874594">
                <ele>25.131714</ele>
                <time>2014-07-26T07:03:52Z</time>
            </trkpt>
            <trkpt lon="100.942308" lat="12.874190">
                <ele>24.651001</ele>
                <time>2014-07-26T07:04:03Z</time>
            </trkpt>
            <trkpt lon="100.941972" lat="12.874065">
                <ele>25.131714</ele>
                <time>2014-07-26T07:04:17Z</time>
            </trkpt>
            <trkpt lon="100.941710" lat="12.873605">
                <ele>25.612305</ele>
                <time>2014-07-26T07:04:34Z</time>
            </trkpt>
            <trkpt lon="100.941462" lat="12.873479">
                <ele>26.092896</ele>
                <time>2014-07-26T07:04:42Z</time>
            </trkpt>
            <trkpt lon="100.942046" lat="12.871819">
                <ele>30.418823</ele>
                <time>2014-07-26T07:05:52Z</time>
            </trkpt>
            <trkpt lon="100.942073" lat="12.871806">
                <ele>39.551270</ele>
                <time>2014-07-26T07:06:10Z</time>
            </trkpt>
            <trkpt lon="100.942111" lat="12.871792">
                <ele>39.551270</ele>
                <time>2014-07-26T07:06:18Z</time>
            </trkpt>
            <trkpt lon="100.942399" lat="12.871927">
                <ele>40.032104</ele>
                <time>2014-07-26T07:06:32Z</time>
            </trkpt>
            <trkpt lon="100.943347" lat="12.872329">
                <ele>35.706055</ele>
                <time>2014-07-26T07:07:07Z</time>
            </trkpt>
            <trkpt lon="100.943195" lat="12.872025">
                <ele>33.783447</ele>
                <time>2014-07-26T07:07:32Z</time>
            </trkpt>
            <trkpt lon="100.943440" lat="12.870929">
                <ele>34.744873</ele>
                <time>2014-07-26T07:08:15Z</time>
            </trkpt>
            <trkpt lon="100.944011" lat="12.870712">
                <ele>35.706055</ele>
                <time>2014-07-26T07:08:36Z</time>
            </trkpt>
            <trkpt lon="100.944025" lat="12.870502">
                <ele>35.225464</ele>
                <time>2014-07-26T07:08:43Z</time>
            </trkpt>
            <trkpt lon="100.944454" lat="12.870417">
                <ele>37.628662</ele>
                <time>2014-07-26T07:09:07Z</time>
            </trkpt>
            <trkpt lon="100.944730" lat="12.870406">
                <ele>38.109375</ele>
                <time>2014-07-26T07:09:17Z</time>
            </trkpt>
            <trkpt lon="100.945124" lat="12.870406">
                <ele>38.109375</ele>
                <time>2014-07-26T07:09:28Z</time>
            </trkpt>
            <trkpt lon="100.945414" lat="12.869584">
                <ele>36.667480</ele>
                <time>2014-07-26T07:09:51Z</time>
            </trkpt>
            <trkpt lon="100.946096" lat="12.868516">
                <ele>34.744873</ele>
                <time>2014-07-26T07:10:18Z</time>
            </trkpt>
            <trkpt lon="100.946132" lat="12.868225">
                <ele>34.264160</ele>
                <time>2014-07-26T07:10:26Z</time>
            </trkpt>
            <trkpt lon="100.946364" lat="12.868191">
                <ele>34.744873</ele>
                <time>2014-07-26T07:10:33Z</time>
            </trkpt>
            <trkpt lon="100.946754" lat="12.868524">
                <ele>35.225464</ele>
                <time>2014-07-26T07:10:48Z</time>
            </trkpt>
            <trkpt lon="100.947008" lat="12.868864">
                <ele>36.667480</ele>
                <time>2014-07-26T07:11:00Z</time>
            </trkpt>
            <trkpt lon="100.947180" lat="12.869454">
                <ele>39.070679</ele>
                <time>2014-07-26T07:11:19Z</time>
            </trkpt>
            <trkpt lon="100.947241" lat="12.869842">
                <ele>36.667480</ele>
                <time>2014-07-26T07:11:37Z</time>
            </trkpt>
            <trkpt lon="100.946804" lat="12.868547">
                <ele>35.706055</ele>
                <time>2014-07-26T07:12:58Z</time>
            </trkpt>
            <trkpt lon="100.946865" lat="12.868362">
                <ele>34.264160</ele>
                <time>2014-07-26T07:13:08Z</time>
            </trkpt>
            <trkpt lon="100.946561" lat="12.867849">
                <ele>35.225464</ele>
                <time>2014-07-26T07:14:17Z</time>
            </trkpt>
            <trkpt lon="100.946676" lat="12.866944">
                <ele>31.860718</ele>
                <time>2014-07-26T07:15:15Z</time>
            </trkpt>
            <trkpt lon="100.946967" lat="12.867083">
                <ele>33.783447</ele>
                <time>2014-07-26T07:15:31Z</time>
            </trkpt>
            <trkpt lon="100.947895" lat="12.866869">
                <ele>34.744873</ele>
                <time>2014-07-26T07:17:50Z</time>
            </trkpt>
            <trkpt lon="100.948043" lat="12.866475">
                <ele>31.860718</ele>
                <time>2014-07-26T07:18:18Z</time>
            </trkpt>
            <trkpt lon="100.948792" lat="12.866800">
                <ele>34.264160</ele>
                <time>2014-07-26T07:18:46Z</time>
            </trkpt>
            <trkpt lon="100.949060" lat="12.868835">
                <ele>36.186768</ele>
                <time>2014-07-26T07:19:42Z</time>
            </trkpt>
            <trkpt lon="100.949265" lat="12.869050">
                <ele>35.706055</ele>
                <time>2014-07-26T07:19:49Z</time>
            </trkpt>
            <trkpt lon="100.949341" lat="12.869533">
                <ele>35.706055</ele>
                <time>2014-07-26T07:20:00Z</time>
            </trkpt>
            <trkpt lon="100.949240" lat="12.870359">
                <ele>36.667480</ele>
                <time>2014-07-26T07:20:19Z</time>
            </trkpt>
            <trkpt lon="100.948709" lat="12.871559">
                <ele>38.109375</ele>
                <time>2014-07-26T07:20:52Z</time>
            </trkpt>
            <trkpt lon="100.948361" lat="12.873197">
                <ele>35.225464</ele>
                <time>2014-07-26T07:21:25Z</time>
            </trkpt>
            <trkpt lon="100.948514" lat="12.875061">
                <ele>34.264160</ele>
                <time>2014-07-26T07:22:00Z</time>
            </trkpt>
            <trkpt lon="100.948383" lat="12.875410">
                <ele>35.225464</ele>
                <time>2014-07-26T07:22:07Z</time>
            </trkpt>
            <trkpt lon="100.948543" lat="12.875779">
                <ele>35.706055</ele>
                <time>2014-07-26T07:22:16Z</time>
            </trkpt>
            <trkpt lon="100.948935" lat="12.875928">
                <ele>35.706055</ele>
                <time>2014-07-26T07:22:24Z</time>
            </trkpt>
            <trkpt lon="100.949121" lat="12.876215">
                <ele>35.225464</ele>
                <time>2014-07-26T07:22:31Z</time>
            </trkpt>
            <trkpt lon="100.949351" lat="12.876194">
                <ele>34.744873</ele>
                <time>2014-07-26T07:22:37Z</time>
            </trkpt>
            <trkpt lon="100.951749" lat="12.874623">
                <ele>31.860718</ele>
                <time>2014-07-26T07:23:31Z</time>
            </trkpt>
            <trkpt lon="100.952035" lat="12.873816">
                <ele>31.380127</ele>
                <time>2014-07-26T07:23:49Z</time>
            </trkpt>
            <trkpt lon="100.952357" lat="12.871866">
                <ele>28.976929</ele>
                <time>2014-07-26T07:24:34Z</time>
            </trkpt>
            <trkpt lon="100.953684" lat="12.870137">
                <ele>30.418823</ele>
                <time>2014-07-26T07:25:18Z</time>
            </trkpt>
            <trkpt lon="100.955080" lat="12.870238">
                <ele>33.302856</ele>
                <time>2014-07-26T07:26:02Z</time>
            </trkpt>
            <trkpt lon="100.956415" lat="12.870122">
                <ele>34.744873</ele>
                <time>2014-07-26T07:26:35Z</time>
            </trkpt>
            <trkpt lon="100.956529" lat="12.870566">
                <ele>33.302856</ele>
                <time>2014-07-26T07:26:52Z</time>
            </trkpt>
            <trkpt lon="100.957406" lat="12.870501">
                <ele>30.899536</ele>
                <time>2014-07-26T07:27:15Z</time>
            </trkpt>
            <trkpt lon="100.960593" lat="12.871198">
                <ele>29.457520</ele>
                <time>2014-07-26T07:28:21Z</time>
            </trkpt>
            <trkpt lon="100.961012" lat="12.870913">
                <ele>28.976929</ele>
                <time>2014-07-26T07:28:38Z</time>
            </trkpt>
            <trkpt lon="100.960779" lat="12.871058">
                <ele>29.457520</ele>
                <time>2014-07-26T07:28:56Z</time>
            </trkpt>
            <trkpt lon="100.960670" lat="12.871168">
                <ele>29.457520</ele>
                <time>2014-07-26T07:29:01Z</time>
            </trkpt>
            <trkpt lon="100.960326" lat="12.871071">
                <ele>28.976929</ele>
                <time>2014-07-26T07:29:13Z</time>
            </trkpt>
            <trkpt lon="100.959857" lat="12.870929">
                <ele>27.534912</ele>
                <time>2014-07-26T07:29:37Z</time>
            </trkpt>
            <trkpt lon="100.959748" lat="12.870115">
                <ele>25.612305</ele>
                <time>2014-07-26T07:29:57Z</time>
            </trkpt>
            <trkpt lon="100.959867" lat="12.869776">
                <ele>25.612305</ele>
                <time>2014-07-26T07:30:05Z</time>
            </trkpt>
            <trkpt lon="100.960542" lat="12.869715">
                <ele>26.573608</ele>
                <time>2014-07-26T07:30:26Z</time>
            </trkpt>
            <trkpt lon="100.961542" lat="12.869387">
                <ele>26.573608</ele>
                <time>2014-07-26T07:30:54Z</time>
            </trkpt>
            <trkpt lon="100.962089" lat="12.868823">
                <ele>27.054321</ele>
                <time>2014-07-26T07:31:16Z</time>
            </trkpt>
            <trkpt lon="100.962158" lat="12.868432">
                <ele>26.573608</ele>
                <time>2014-07-26T07:31:27Z</time>
            </trkpt>
            <trkpt lon="100.962482" lat="12.868192">
                <ele>26.573608</ele>
                <time>2014-07-26T07:31:38Z</time>
            </trkpt>
            <trkpt lon="100.963606" lat="12.868527">
                <ele>27.534912</ele>
                <time>2014-07-26T07:32:08Z</time>
            </trkpt>
            <trkpt lon="100.964234" lat="12.869244">
                <ele>28.976929</ele>
                <time>2014-07-26T07:32:32Z</time>
            </trkpt>
            <trkpt lon="100.964989" lat="12.869280">
                <ele>30.899536</ele>
                <time>2014-07-26T07:32:53Z</time>
            </trkpt>
            <trkpt lon="100.965290" lat="12.869528">
                <ele>32.341553</ele>
                <time>2014-07-26T07:33:05Z</time>
            </trkpt>
            <trkpt lon="100.966937" lat="12.871223">
                <ele>31.860718</ele>
                <time>2014-07-26T07:33:59Z</time>
            </trkpt>
            <trkpt lon="100.967396" lat="12.871560">
                <ele>31.380127</ele>
                <time>2014-07-26T07:34:14Z</time>
            </trkpt>
            <trkpt lon="100.968825" lat="12.872129">
                <ele>34.264160</ele>
                <time>2014-07-26T07:34:48Z</time>
            </trkpt>
            <trkpt lon="100.969682" lat="12.872700">
                <ele>32.822266</ele>
                <time>2014-07-26T07:35:11Z</time>
            </trkpt>
            <trkpt lon="100.970408" lat="12.872663">
                <ele>33.302856</ele>
                <time>2014-07-26T07:35:27Z</time>
            </trkpt>
            <trkpt lon="100.971090" lat="12.872972">
                <ele>34.744873</ele>
                <time>2014-07-26T07:35:46Z</time>
            </trkpt>
            <trkpt lon="100.970955" lat="12.868995">
                <ele>31.380127</ele>
                <time>2014-07-26T07:38:14Z</time>
            </trkpt>
            <trkpt lon="100.970983" lat="12.869021">
                <ele>35.706055</ele>
                <time>2014-07-26T07:44:21Z</time>
            </trkpt>
            <trkpt lon="100.970930" lat="12.869759">
                <ele>34.744873</ele>
                <time>2014-07-26T07:44:46Z</time>
            </trkpt>
            <trkpt lon="100.971142" lat="12.872603">
                <ele>35.706055</ele>
                <time>2014-07-26T07:45:46Z</time>
            </trkpt>
            <trkpt lon="100.971594" lat="12.872535">
                <ele>35.706055</ele>
                <time>2014-07-26T07:45:58Z</time>
            </trkpt>
            <trkpt lon="100.972123" lat="12.872694">
                <ele>39.070679</ele>
                <time>2014-07-26T07:46:16Z</time>
            </trkpt>
            <trkpt lon="100.972398" lat="12.872842">
                <ele>40.032104</ele>
                <time>2014-07-26T07:46:30Z</time>
            </trkpt>
            <trkpt lon="100.974161" lat="12.873600">
                <ele>38.590088</ele>
                <time>2014-07-26T07:47:57Z</time>
            </trkpt>
            <trkpt lon="100.974996" lat="12.874237">
                <ele>38.590088</ele>
                <time>2014-07-26T07:48:29Z</time>
            </trkpt>
            <trkpt lon="100.976677" lat="12.874274">
                <ele>41.954712</ele>
                <time>2014-07-26T07:49:48Z</time>
            </trkpt>
            <trkpt lon="100.976940" lat="12.874400">
                <ele>41.954712</ele>
                <time>2014-07-26T07:50:01Z</time>
            </trkpt>
            <trkpt lon="100.977177" lat="12.874794">
                <ele>40.993408</ele>
                <time>2014-07-26T07:50:15Z</time>
            </trkpt>
            <trkpt lon="100.977537" lat="12.875712">
                <ele>41.473999</ele>
                <time>2014-07-26T07:50:46Z</time>
            </trkpt>
            <trkpt lon="100.978771" lat="12.875568">
                <ele>42.916016</ele>
                <time>2014-07-26T07:51:31Z</time>
            </trkpt>
            <trkpt lon="100.978880" lat="12.875882">
                <ele>44.838623</ele>
                <time>2014-07-26T07:51:43Z</time>
            </trkpt>
            <trkpt lon="100.979011" lat="12.876140">
                <ele>43.877319</ele>
                <time>2014-07-26T07:51:50Z</time>
            </trkpt>
            <trkpt lon="100.979006" lat="12.877553">
                <ele>43.396606</ele>
                <time>2014-07-26T07:52:27Z</time>
            </trkpt>
            <trkpt lon="100.979251" lat="12.877612">
                <ele>43.877319</ele>
                <time>2014-07-26T07:52:36Z</time>
            </trkpt>
            <trkpt lon="100.979894" lat="12.877635">
                <ele>44.838623</ele>
                <time>2014-07-26T07:52:57Z</time>
            </trkpt>
            <trkpt lon="100.980215" lat="12.877395">
                <ele>44.838623</ele>
                <time>2014-07-26T07:53:11Z</time>
            </trkpt>
            <trkpt lon="100.981085" lat="12.877409">
                <ele>45.799927</ele>
                <time>2014-07-26T07:53:43Z</time>
            </trkpt>
            <trkpt lon="100.981779" lat="12.877171">
                <ele>46.761230</ele>
                <time>2014-07-26T07:54:09Z</time>
            </trkpt>
            <trkpt lon="100.983659" lat="12.877565">
                <ele>49.645264</ele>
                <time>2014-07-26T07:55:17Z</time>
            </trkpt>
            <trkpt lon="100.984544" lat="12.877402">
                <ele>51.087158</ele>
                <time>2014-07-26T07:56:03Z</time>
            </trkpt>
            <trkpt lon="100.985386" lat="12.877485">
                <ele>53.490479</ele>
                <time>2014-07-26T07:56:37Z</time>
            </trkpt>
            <trkpt lon="100.985825" lat="12.877322">
                <ele>53.490479</ele>
                <time>2014-07-26T07:56:54Z</time>
            </trkpt>
            <trkpt lon="100.985843" lat="12.877105">
                <ele>53.490479</ele>
                <time>2014-07-26T07:57:05Z</time>
            </trkpt>
            <trkpt lon="100.985110" lat="12.875868">
                <ele>53.009766</ele>
                <time>2014-07-26T07:57:46Z</time>
            </trkpt>
            <trkpt lon="100.985180" lat="12.875686">
                <ele>52.048584</ele>
                <time>2014-07-26T07:58:04Z</time>
            </trkpt>
            <trkpt lon="100.987037" lat="12.874718">
                <ele>56.374512</ele>
                <time>2014-07-26T07:59:36Z</time>
            </trkpt>
            <trkpt lon="100.987603" lat="12.875832">
                <ele>55.413086</ele>
                <time>2014-07-26T08:00:13Z</time>
            </trkpt>
            <trkpt lon="100.987825" lat="12.875935">
                <ele>56.855103</ele>
                <time>2014-07-26T08:00:23Z</time>
            </trkpt>
            <trkpt lon="100.991972" lat="12.876806">
                <ele>64.065063</ele>
                <time>2014-07-26T08:02:36Z</time>
            </trkpt>
            <trkpt lon="100.992575" lat="12.876851">
                <ele>64.545654</ele>
                <time>2014-07-26T08:02:54Z</time>
            </trkpt>
            <trkpt lon="100.993641" lat="12.876616">
                <ele>66.948975</ele>
                <time>2014-07-26T08:03:32Z</time>
            </trkpt>
            <trkpt lon="100.993512" lat="12.874689">
                <ele>65.507080</ele>
                <time>2014-07-26T08:04:27Z</time>
            </trkpt>
            <trkpt lon="100.993891" lat="12.874567">
                <ele>65.987671</ele>
                <time>2014-07-26T08:04:40Z</time>
            </trkpt>
            <trkpt lon="100.993921" lat="12.874473">
                <ele>65.507080</ele>
                <time>2014-07-26T08:04:44Z</time>
            </trkpt>
            <trkpt lon="100.993596" lat="12.873452">
                <ele>65.987671</ele>
                <time>2014-07-26T08:05:49Z</time>
            </trkpt>
            <trkpt lon="100.994822" lat="12.873518">
                <ele>68.390869</ele>
                <time>2014-07-26T08:06:43Z</time>
            </trkpt>
            <trkpt lon="100.995201" lat="12.874817">
                <ele>65.987671</ele>
                <time>2014-07-26T08:07:38Z</time>
            </trkpt>
            <trkpt lon="100.996077" lat="12.874769">
                <ele>69.352295</ele>
                <time>2014-07-26T08:08:50Z</time>
            </trkpt>
            <trkpt lon="100.996178" lat="12.875793">
                <ele>70.313477</ele>
                <time>2014-07-26T08:10:05Z</time>
            </trkpt>
            <trkpt lon="100.996223" lat="12.876603">
                <ele>68.871582</ele>
                <time>2014-07-26T08:11:19Z</time>
            </trkpt>
            <trkpt lon="100.994151" lat="12.877423">
                <ele>65.026367</ele>
                <time>2014-07-26T08:12:39Z</time>
            </trkpt>
            <trkpt lon="100.994527" lat="12.878178">
                <ele>65.507080</ele>
                <time>2014-07-26T08:13:15Z</time>
            </trkpt>
            <trkpt lon="100.994133" lat="12.878673">
                <ele>63.584351</ele>
                <time>2014-07-26T08:13:35Z</time>
            </trkpt>
            <trkpt lon="100.994161" lat="12.879384">
                <ele>64.065063</ele>
                <time>2014-07-26T08:14:04Z</time>
            </trkpt>
            <trkpt lon="100.995371" lat="12.879605">
                <ele>67.429688</ele>
                <time>2014-07-26T08:15:06Z</time>
            </trkpt>
            <trkpt lon="101.000967" lat="12.881478">
                <ele>86.656006</ele>
                <time>2014-07-26T08:19:41Z</time>
            </trkpt>
            <trkpt lon="101.001956" lat="12.881150">
                <ele>88.578735</ele>
                <time>2014-07-26T08:20:53Z</time>
            </trkpt>
            <trkpt lon="101.002133" lat="12.880905">
                <ele>87.617188</ele>
                <time>2014-07-26T08:21:23Z</time>
            </trkpt>
            <trkpt lon="101.002536" lat="12.880688">
                <ele>88.098022</ele>
                <time>2014-07-26T08:21:53Z</time>
            </trkpt>
            <trkpt lon="101.004092" lat="12.880642">
                <ele>91.462524</ele>
                <time>2014-07-26T08:23:02Z</time>
            </trkpt>
            <trkpt lon="101.005069" lat="12.880660">
                <ele>91.943237</ele>
                <time>2014-07-26T08:23:31Z</time>
            </trkpt>
            <trkpt lon="101.005826" lat="12.881180">
                <ele>95.307739</ele>
                <time>2014-07-26T08:24:03Z</time>
            </trkpt>
            <trkpt lon="101.006387" lat="12.881289">
                <ele>96.269287</ele>
                <time>2014-07-26T08:24:21Z</time>
            </trkpt>
            <trkpt lon="101.006924" lat="12.881247">
                <ele>97.711182</ele>
                <time>2014-07-26T08:24:37Z</time>
            </trkpt>
            <trkpt lon="101.008534" lat="12.881504">
                <ele>103.479004</ele>
                <time>2014-07-26T08:25:30Z</time>
            </trkpt>
            <trkpt lon="101.009026" lat="12.883719">
                <ele>117.898804</ele>
                <time>2014-07-26T08:27:44Z</time>
            </trkpt>
            <trkpt lon="101.008355" lat="12.883955">
                <ele>123.186157</ele>
                <time>2014-07-26T08:30:08Z</time>
            </trkpt>
            <trkpt lon="101.008264" lat="12.884456">
                <ele>128.954102</ele>
                <time>2014-07-26T08:31:02Z</time>
            </trkpt>
            <trkpt lon="101.007659" lat="12.885004">
                <ele>122.224731</ele>
                <time>2014-07-26T08:31:46Z</time>
            </trkpt>
            <trkpt lon="101.007571" lat="12.885718">
                <ele>122.224731</ele>
                <time>2014-07-26T08:32:30Z</time>
            </trkpt>
            <trkpt lon="101.006927" lat="12.886721">
                <ele>123.186157</ele>
                <time>2014-07-26T08:33:22Z</time>
            </trkpt>
            <trkpt lon="101.006710" lat="12.886850">
                <ele>120.782837</ele>
                <time>2014-07-26T08:33:47Z</time>
            </trkpt>
            <trkpt lon="101.006483" lat="12.886913">
                <ele>115.495605</ele>
                <time>2014-07-26T08:34:26Z</time>
            </trkpt>
            <trkpt lon="101.006383" lat="12.887151">
                <ele>114.534180</ele>
                <time>2014-07-26T08:34:39Z</time>
            </trkpt>
            <trkpt lon="101.005690" lat="12.887137">
                <ele>110.688843</ele>
                <time>2014-07-26T08:35:01Z</time>
            </trkpt>
            <trkpt lon="101.005630" lat="12.887107">
                <ele>109.727661</ele>
                <time>2014-07-26T08:35:03Z</time>
            </trkpt>
            <trkpt lon="101.005453" lat="12.887206">
                <ele>106.843628</ele>
                <time>2014-07-26T08:35:11Z</time>
            </trkpt>
            <trkpt lon="101.005195" lat="12.887653">
                <ele>102.037109</ele>
                <time>2014-07-26T08:35:30Z</time>
            </trkpt>
            <trkpt lon="101.005111" lat="12.888788">
                <ele>102.037109</ele>
                <time>2014-07-26T08:36:00Z</time>
            </trkpt>
            <trkpt lon="101.005445" lat="12.889162">
                <ele>108.766235</ele>
                <time>2014-07-26T08:36:37Z</time>
            </trkpt>
            <trkpt lon="101.005443" lat="12.890435">
                <ele>104.921021</ele>
                <time>2014-07-26T08:37:22Z</time>
            </trkpt>
            <trkpt lon="101.005595" lat="12.890673">
                <ele>108.766235</ele>
                <time>2014-07-26T08:38:06Z</time>
            </trkpt>
            <trkpt lon="101.005466" lat="12.890962">
                <ele>109.246948</ele>
                <time>2014-07-26T08:38:19Z</time>
            </trkpt>
            <trkpt lon="101.004902" lat="12.890898">
                <ele>105.401733</ele>
                <time>2014-07-26T08:38:56Z</time>
            </trkpt>
            <trkpt lon="101.004577" lat="12.891251">
                <ele>102.517700</ele>
                <time>2014-07-26T08:39:56Z</time>
            </trkpt>
            <trkpt lon="101.004490" lat="12.891633">
                <ele>102.037109</ele>
                <time>2014-07-26T08:40:12Z</time>
            </trkpt>
            <trkpt lon="101.004909" lat="12.892417">
                <ele>105.401733</ele>
                <time>2014-07-26T08:40:45Z</time>
            </trkpt>
            <trkpt lon="101.005076" lat="12.893344">
                <ele>104.921021</ele>
                <time>2014-07-26T08:41:20Z</time>
            </trkpt>
            <trkpt lon="101.005316" lat="12.893769">
                <ele>103.479004</ele>
                <time>2014-07-26T08:41:35Z</time>
            </trkpt>
            <trkpt lon="101.006200" lat="12.894292">
                <ele>104.921021</ele>
                <time>2014-07-26T08:42:09Z</time>
            </trkpt>
            <trkpt lon="101.006467" lat="12.894223">
                <ele>104.921021</ele>
                <time>2014-07-26T08:42:21Z</time>
            </trkpt>
            <trkpt lon="101.006607" lat="12.893982">
                <ele>105.401733</ele>
                <time>2014-07-26T08:42:34Z</time>
            </trkpt>
            <trkpt lon="101.006616" lat="12.893979">
                <ele>105.401733</ele>
                <time>2014-07-26T08:42:35Z</time>
            </trkpt>
            <trkpt lon="101.006806" lat="12.894136">
                <ele>106.363037</ele>
                <time>2014-07-26T08:42:54Z</time>
            </trkpt>
            <trkpt lon="101.006781" lat="12.894407">
                <ele>106.363037</ele>
                <time>2014-07-26T08:43:40Z</time>
            </trkpt>
            <trkpt lon="101.007209" lat="12.894326">
                <ele>112.130981</ele>
                <time>2014-07-26T08:44:34Z</time>
            </trkpt>
            <trkpt lon="101.008013" lat="12.895449">
                <ele>117.418213</ele>
                <time>2014-07-26T08:45:52Z</time>
            </trkpt>
            <trkpt lon="101.008014" lat="12.895793">
                <ele>113.092285</ele>
                <time>2014-07-26T08:46:07Z</time>
            </trkpt>
            <trkpt lon="101.007851" lat="12.896073">
                <ele>110.208252</ele>
                <time>2014-07-26T08:46:20Z</time>
            </trkpt>
            <trkpt lon="101.007311" lat="12.896083">
                <ele>111.169556</ele>
                <time>2014-07-26T08:46:48Z</time>
            </trkpt>
            <trkpt lon="101.006097" lat="12.896069">
                <ele>100.114502</ele>
                <time>2014-07-26T08:47:23Z</time>
            </trkpt>
            <trkpt lon="101.005993" lat="12.896634">
                <ele>98.191895</ele>
                <time>2014-07-26T08:47:59Z</time>
            </trkpt>
            <trkpt lon="101.005708" lat="12.896705">
                <ele>96.749878</ele>
                <time>2014-07-26T08:48:10Z</time>
            </trkpt>
            <trkpt lon="101.006163" lat="12.898385">
                <ele>97.711182</ele>
                <time>2014-07-26T08:50:06Z</time>
            </trkpt>
            <trkpt lon="101.005397" lat="12.898258">
                <ele>93.385132</ele>
                <time>2014-07-26T08:50:28Z</time>
            </trkpt>
            <trkpt lon="101.004547" lat="12.898323">
                <ele>90.020630</ele>
                <time>2014-07-26T08:50:47Z</time>
            </trkpt>
            <trkpt lon="101.003929" lat="12.898161">
                <ele>87.136597</ele>
                <time>2014-07-26T08:51:11Z</time>
            </trkpt>
            <trkpt lon="101.000598" lat="12.898158">
                <ele>77.042847</ele>
                <time>2014-07-26T08:52:30Z</time>
            </trkpt>
            <trkpt lon="100.999946" lat="12.898175">
                <ele>76.081421</ele>
                <time>2014-07-26T08:52:47Z</time>
            </trkpt>
            <trkpt lon="100.999212" lat="12.898505">
                <ele>74.639526</ele>
                <time>2014-07-26T08:53:08Z</time>
            </trkpt>
            <trkpt lon="100.999203" lat="12.898686">
                <ele>75.600830</ele>
                <time>2014-07-26T08:53:21Z</time>
            </trkpt>
            <trkpt lon="100.999667" lat="12.899112">
                <ele>77.042847</ele>
                <time>2014-07-26T08:53:51Z</time>
            </trkpt>
            <trkpt lon="100.999793" lat="12.899361">
                <ele>76.562134</ele>
                <time>2014-07-26T08:54:45Z</time>
            </trkpt>
            <trkpt lon="100.999731" lat="12.899650">
                <ele>78.484741</ele>
                <time>2014-07-26T08:55:03Z</time>
            </trkpt>
            <trkpt lon="100.999563" lat="12.901510">
                <ele>79.446045</ele>
                <time>2014-07-26T08:55:56Z</time>
            </trkpt>
            <trkpt lon="100.999351" lat="12.901767">
                <ele>78.965454</ele>
                <time>2014-07-26T08:56:06Z</time>
            </trkpt>
            <trkpt lon="100.998225" lat="12.901934">
                <ele>78.484741</ele>
                <time>2014-07-26T08:56:37Z</time>
            </trkpt>
            <trkpt lon="100.998080" lat="12.902254">
                <ele>77.523438</ele>
                <time>2014-07-26T08:57:01Z</time>
            </trkpt>
            <trkpt lon="100.997543" lat="12.902782">
                <ele>75.120239</ele>
                <time>2014-07-26T08:57:51Z</time>
            </trkpt>
            <trkpt lon="100.997080" lat="12.903972">
                <ele>74.158813</ele>
                <time>2014-07-26T08:58:54Z</time>
            </trkpt>
            <trkpt lon="100.997153" lat="12.904363">
                <ele>73.678223</ele>
                <time>2014-07-26T08:59:08Z</time>
            </trkpt>
            <trkpt lon="100.997783" lat="12.904910">
                <ele>77.042847</ele>
                <time>2014-07-26T08:59:37Z</time>
            </trkpt>
            <trkpt lon="100.997728" lat="12.905087">
                <ele>77.042847</ele>
                <time>2014-07-26T08:59:47Z</time>
            </trkpt>
            <trkpt lon="100.997714" lat="12.905104">
                <ele>76.562134</ele>
                <time>2014-07-26T09:00:01Z</time>
            </trkpt>
            <trkpt lon="100.995630" lat="12.905109">
                <ele>76.562134</ele>
                <time>2014-07-26T09:01:42Z</time>
            </trkpt>
            <trkpt lon="100.994235" lat="12.905263">
                <ele>73.678223</ele>
                <time>2014-07-26T09:02:13Z</time>
            </trkpt>
            <trkpt lon="100.990416" lat="12.904965">
                <ele>68.390869</ele>
                <time>2014-07-26T09:03:23Z</time>
            </trkpt>
            <trkpt lon="100.988575" lat="12.905997">
                <ele>72.716919</ele>
                <time>2014-07-26T09:04:24Z</time>
            </trkpt>
            <trkpt lon="100.986625" lat="12.902890">
                <ele>72.716919</ele>
                <time>2014-07-26T09:06:07Z</time>
            </trkpt>
            <trkpt lon="100.986870" lat="12.903485">
                <ele>72.716919</ele>
                <time>2014-07-26T09:06:52Z</time>
            </trkpt>
            <trkpt lon="100.986786" lat="12.903524">
                <ele>72.716919</ele>
                <time>2014-07-26T09:06:57Z</time>
            </trkpt>
            <trkpt lon="100.985632" lat="12.903195">
                <ele>80.407471</ele>
                <time>2014-07-26T09:07:44Z</time>
            </trkpt>
            <trkpt lon="100.984797" lat="12.902895">
                <ele>81.368774</ele>
                <time>2014-07-26T09:08:08Z</time>
            </trkpt>
            <trkpt lon="100.981860" lat="12.901973">
                <ele>75.600830</ele>
                <time>2014-07-26T09:09:19Z</time>
            </trkpt>
            <trkpt lon="100.980507" lat="12.902223">
                <ele>74.639526</ele>
                <time>2014-07-26T09:09:52Z</time>
            </trkpt>
            <trkpt lon="100.980125" lat="12.903267">
                <ele>76.081421</ele>
                <time>2014-07-26T09:10:21Z</time>
            </trkpt>
            <trkpt lon="100.979220" lat="12.906241">
                <ele>68.871582</ele>
                <time>2014-07-26T09:11:10Z</time>
            </trkpt>
            <trkpt lon="100.978073" lat="12.904523">
                <ele>72.716919</ele>
                <time>2014-07-26T09:12:02Z</time>
            </trkpt>
            <trkpt lon="100.977808" lat="12.904447">
                <ele>71.274902</ele>
                <time>2014-07-26T09:12:09Z</time>
            </trkpt>
            <trkpt lon="100.976427" lat="12.905913">
                <ele>74.158813</ele>
                <time>2014-07-26T09:12:52Z</time>
            </trkpt>
            <trkpt lon="100.975806" lat="12.906372">
                <ele>75.600830</ele>
                <time>2014-07-26T09:13:08Z</time>
            </trkpt>
            <trkpt lon="100.975604" lat="12.906478">
                <ele>75.600830</ele>
                <time>2014-07-26T09:13:31Z</time>
            </trkpt>
            <trkpt lon="100.975128" lat="12.906892">
                <ele>69.832886</ele>
                <time>2014-07-26T09:17:46Z</time>
            </trkpt>
            <trkpt lon="100.974685" lat="12.906820">
                <ele>71.274902</ele>
                <time>2014-07-26T09:17:58Z</time>
            </trkpt>
            <trkpt lon="100.974367" lat="12.906302">
                <ele>68.871582</ele>
                <time>2014-07-26T09:18:14Z</time>
            </trkpt>
            <trkpt lon="100.975229" lat="12.905496">
                <ele>68.390869</ele>
                <time>2014-07-26T09:18:50Z</time>
            </trkpt>
        </trkseg>
    </trk>
</gpx>